Brockway, PA

11:52 PM EDT on September 02, 2015 (GMT -0400)
Du Bois-Jefferson County | | Change Station
CLOSE
Current Station
Airport
Location: Du Bois,
Elevation: 1818 ft
Nearby Weather Stations

Elev 1818 ft 41.18 °N, 78.90 °W | Updated 59 minutes ago

Clear
Clear
72 °F
Feels Like 72 °F
N
0
Wind Variable Wind from North

Today
High -- | Low -- °F
--% Chance of Precip.
Yesterday
High -- | Low -- °F
Precip. -- in
6:42 AM 7:46 PM
Waning Gibbous, 74% visible
Pressure 29.98 in
Visibility 7.0 miles
Clouds Clear
Dew Point 65 °F
Humidity 78%
Rainfall 0.21 in
Snow Depth Not available.
UV 0 out of 12
Pollen 10.00 out of 12
Air Quality Not available.
Flu Activity Not available.
METAR KDUJ 030253Z AUTO 00000KT 7SM CLR 22/18 A3003 RMK AO2 SLP152 T02220183 51005
Pressure 29.98 in
Visibility 7.0 miles
Clouds Clear
Dew Point 65 °F
Humidity 78%
Rainfall 0.21 in
Snow Depth Not available.
UV 0 out of 12
Pollen 10.00 out of 12
Air Quality Not available.
Flu Activity Not available.
METAR KDUJ 030253Z AUTO 00000KT 7SM CLR 22/18 A3003 RMK AO2 SLP152 T02220183 51005

10-Day Weather Forecast

×

Almanac

Astronomy

Sep. 02, 2015 Rise Set
Actual Time
Civil Twilight
Nautical Twilight
Astronomical Twilight
Moon
Length of Visible Light
Length of Day
Tomorrow will be .
, % of the Moon is Illuminated

Today's Extremes

State Highs State Lows

Community

WunderPhotos

Upload Photos

1,851,903 photos uploaded!

WunderBlogs® & News

Nearby

Air Quality

  Air Quality AQ Index Pollutant
Not available.

Snow Depth

Station Depth Elevation

Earthquake Activity

City Distance Mag. Time & Date
Minimum magnitude displayed is 2.5.

Coastal Water Temperatures

Place Temperature

Stations

Nearby Weather Stations

Station Location Temp. Windchill Dew Point Humidity Wind Precip. Elev Updated Type